createdAt,value
2022-08-29T00:01:26.167Z,102036.66
2022-08-29T00:03:56.490Z,102043.69
2022-08-29T00:06:23.360Z,102041.97
2022-08-29T00:08:50.378Z,102046.78
2022-08-29T00:11:17.973Z,102042.31
2022-08-29T00:13:45.347Z,102039.78
2022-08-29T00:16:12.465Z,102048.97
2022-08-29T00:18:40.028Z,102045.13
2022-08-29T00:21:07.633Z,102050.50
2022-08-29T00:23:34.659Z,102048.78
2022-08-29T00:26:01.599Z,102054.44
2022-08-29T00:28:28.561Z,102046.53
2022-08-29T00:30:55.555Z,102040.69
2022-08-29T00:33:22.484Z,102040.38
2022-08-29T00:35:49.355Z,102042.31
2022-08-29T00:38:18.216Z,102041.22
2022-08-29T00:40:51.642Z,102043.50
2022-08-29T00:43:28.352Z,102046.31
2022-08-29T00:46:13.937Z,102044.34
2022-08-29T00:48:41.631Z,102044.63
2022-08-29T00:51:13.172Z,102041.81
2022-08-29T00:53:43.119Z,102036.16
2022-08-29T00:56:10.437Z,102037.31
2022-08-29T00:58:46.866Z,102038.09
2022-08-29T01:01:14.619Z,102032.50
2022-08-29T01:03:42.667Z,102032.22
2022-08-29T01:06:10.701Z,102030.28
2022-08-29T01:08:37.572Z,102036.78
2022-08-29T01:11:22.910Z,102032.81
2022-08-29T01:13:51.686Z,102037.91
2022-08-29T01:16:19.550Z,102041.56
2022-08-29T01:18:47.761Z,102043.03
2022-08-29T01:21:17.587Z,102038.19
2022-08-29T01:23:56.303Z,102035.94
2022-08-29T01:26:23.591Z,102038.53
2022-08-29T01:28:51.641Z,102037.63
2022-08-29T01:31:37.427Z,102046.09
2022-08-29T01:34:11.180Z,102039.03
2022-08-29T01:36:55.775Z,102041.34
2022-08-29T01:39:33.090Z,102048.97
2022-08-29T01:42:01.053Z,102037.69
2022-08-29T01:44:28.028Z,102032.88
2022-08-29T01:47:02.232Z,102034.25
2022-08-29T01:49:33.648Z,102036.84
2022-08-29T01:52:02.106Z,102032.31
2022-08-29T01:54:29.699Z,102030.63
2022-08-29T01:56:56.548Z,102025.84
2022-08-29T01:59:33.233Z,102032.66
2022-08-29T02:02:03.036Z,102044.16
2022-08-29T02:04:30.505Z,102039.94
2022-08-29T02:06:57.948Z,102039.38
2022-08-29T02:09:32.798Z,102043.84
2022-08-29T02:12:02.841Z,102041.63
2022-08-29T02:14:30.773Z,102042.75
2022-08-29T02:16:57.592Z,102049.56
2022-08-29T02:19:33.086Z,102042.47
2022-08-29T02:22:00.297Z,102039.38
2022-08-29T02:24:27.196Z,102044.44
2022-08-29T02:26:55.567Z,102047.88
2022-08-29T02:29:37.640Z,102049.56
2022-08-29T02:32:09.291Z,102043.38
2022-08-29T02:34:36.385Z,102045.91
2022-08-29T02:37:03.729Z,102049.56
2022-08-29T02:39:33.992Z,102039.41
2022-08-29T02:42:00.845Z,102049.84
2022-08-29T02:44:27.657Z,102043.09
2022-08-29T02:46:54.752Z,102044.50
2022-08-29T02:49:32.368Z,102049.56
2022-08-29T02:51:59.505Z,102044.22
2022-08-29T02:54:26.668Z,102039.19
2022-08-29T02:56:53.486Z,102038.63
2022-08-29T02:59:31.953Z,102036.66
2022-08-29T03:01:58.986Z,102041.16
2022-08-29T03:04:25.922Z,102038.63
2022-08-29T03:06:52.800Z,102039.19
2022-08-29T03:09:29.527Z,102029.03
2022-08-29T03:11:56.894Z,102033.28
2022-08-29T03:14:24.710Z,102033.53
2022-08-29T03:16:51.608Z,102027.59
2022-08-29T03:19:31.366Z,102021.72
2022-08-29T03:22:04.373Z,102024.81
2022-08-29T03:24:31.206Z,102034.44
2022-08-29T03:26:58.896Z,102030.47
2022-08-29T03:29:32.019Z,102033.88
2022-08-29T03:31:58.846Z,102029.38
2022-08-29T03:34:27.644Z,102026.78
2022-08-29T03:36:55.150Z,102029.31
2022-08-29T03:39:33.339Z,102028.81
2022-08-29T03:42:00.107Z,102027.97
2022-08-29T03:44:27.471Z,102034.44
2022-08-29T03:46:55.252Z,102034.44
2022-08-29T03:49:22.107Z,102021.78
2022-08-29T03:54:16.978Z,102026.94
2022-08-29T03:56:43.763Z,102028.31
2022-08-29T03:59:11.612Z,102025.47
2022-08-29T04:01:38.695Z,102035.34
2022-08-29T04:04:05.692Z,102031.06
2022-08-29T04:06:34.339Z,102023.78
2022-08-29T04:09:01.123Z,102026.03
2022-08-29T04:11:28.569Z,102028.00
2022-08-29T04:13:55.661Z,102025.47
2022-08-29T04:16:24.017Z,102031.41
2022-08-29T04:18:51.029Z,102025.78
2022-08-29T04:21:18.405Z,102028.91
2022-08-29T04:23:46.481Z,102025.25
2022-08-29T04:26:35.973Z,102020.75
2022-08-29T04:29:03.946Z,102030.81
2022-08-29T04:31:30.700Z,102025.53
2022-08-29T04:33:57.667Z,102028.06
2022-08-29T04:36:24.623Z,102029.16
2022-08-29T04:38:51.399Z,102029.19
2022-08-29T04:41:18.255Z,102021.28
2022-08-29T04:43:48.090Z,102024.97
2022-08-29T04:46:16.376Z,102022.19
2022-08-29T04:48:51.069Z,102036.28
2022-08-29T04:51:18.037Z,102034.88
2022-08-29T04:53:45.700Z,102036.56
2022-08-29T04:56:12.929Z,102040.22
2022-08-29T04:58:40.784Z,102049.22
2022-08-29T05:01:12.612Z,102044.41
2022-08-29T05:03:39.534Z,102047.00
2022-08-29T05:06:11.354Z,102050.66
2022-08-29T05:08:39.178Z,102054.91
2022-08-29T05:11:11.538Z,102044.78
2022-08-29T05:13:38.859Z,102053.22
2022-08-29T05:16:10.401Z,102060.84
2022-08-29T05:18:37.441Z,102059.41
2022-08-29T05:21:09.879Z,102050.69
2022-08-29T05:23:36.823Z,102067.31
2022-08-29T05:26:04.858Z,102066.25
2022-08-29T05:28:32.566Z,102073.84
2022-08-29T05:31:11.791Z,102077.50
2022-08-29T05:33:40.767Z,102074.09
2022-08-29T05:36:07.574Z,102081.97
2022-08-29T05:38:34.288Z,102084.81
2022-08-29T05:41:05.477Z,102076.66
2022-08-29T05:43:33.094Z,102086.19
2022-08-29T05:46:04.310Z,102086.22
2022-08-29T05:48:31.465Z,102082.84
2022-08-29T05:51:04.667Z,102079.72
2022-08-29T05:53:31.285Z,102079.72
2022-08-29T05:55:57.954Z,102066.78
2022-08-29T05:58:24.696Z,102075.81
2022-08-29T06:00:51.384Z,102074.94
2022-08-29T06:03:18.294Z,102070.44
2022-08-29T06:05:49.930Z,102075.53
2022-08-29T06:08:16.713Z,102073.25
2022-08-29T06:10:45.414Z,102076.38
2022-08-29T06:13:12.737Z,102075.22
2022-08-29T06:15:42.833Z,102079.22
2022-08-29T06:18:09.512Z,102074.13
2022-08-29T06:20:37.543Z,102079.78
2022-08-29T06:23:04.387Z,102075.22
2022-08-29T06:25:39.555Z,102080.84
2022-08-29T06:28:06.870Z,102077.19
2022-08-29T06:30:34.067Z,102075.78
2022-08-29T06:33:01.371Z,102074.09
2022-08-29T06:35:32.682Z,102079.72
2022-08-29T06:37:59.302Z,102074.69
2022-08-29T06:40:26.097Z,102084.53
2022-08-29T06:42:52.769Z,102075.81
2022-08-29T06:45:19.387Z,102081.47
2022-08-29T06:47:46.769Z,102081.72
2022-08-29T06:50:13.902Z,102084.00
2022-08-29T06:52:40.590Z,102091.84
2022-08-29T06:55:11.825Z,102091.00
2022-08-29T06:57:46.127Z,102089.03
2022-08-29T07:00:21.860Z,102090.47
2022-08-29T07:02:51.705Z,102090.16
2022-08-29T07:05:19.982Z,102088.47
2022-08-29T07:07:46.652Z,102087.94
2022-08-29T07:10:17.607Z,102096.91
2022-08-29T07:12:48.325Z,102098.06
2022-08-29T07:15:15.031Z,102104.53
2022-08-29T07:17:42.275Z,102092.13
2022-08-29T07:20:10.108Z,102102.28
2022-08-29T07:22:36.773Z,102098.34
2022-08-29T07:25:03.436Z,102095.25
2022-08-29T07:27:30.047Z,102085.38
2022-08-29T07:29:56.795Z,102085.38
2022-08-29T07:32:25.846Z,102088.78
2022-08-29T07:34:55.914Z,102091.00
2022-08-29T07:37:23.025Z,102092.72
2022-08-29T07:39:49.678Z,102088.47
2022-08-29T07:42:16.866Z,102092.72
2022-08-29T07:44:43.501Z,102095.53
2022-08-29T07:47:10.147Z,102092.97
2022-08-29T07:49:41.383Z,102096.91
2022-08-29T07:52:09.944Z,102093.56
2022-08-29T07:54:36.577Z,102107.66
2022-08-29T07:57:03.316Z,102100.91
2022-08-29T07:59:30.772Z,102102.28
2022-08-29T08:01:57.506Z,102092.97
2022-08-29T08:04:24.333Z,102097.22
2022-08-29T08:06:50.983Z,102092.97
2022-08-29T08:09:17.677Z,102096.63
2022-08-29T08:11:44.366Z,102096.06
2022-08-29T08:14:11.149Z,102099.19
2022-08-29T08:16:38.011Z,102093.81
2022-08-29T08:19:10.654Z,102095.53
2022-08-29T08:21:37.666Z,102101.97
2022-08-29T08:24:17.408Z,102099.19
2022-08-29T08:26:46.346Z,102092.72
2022-08-29T08:29:13.149Z,102097.47
2022-08-29T08:31:46.791Z,102098.34
2022-08-29T08:34:15.815Z,102095.78
2022-08-29T08:36:45.103Z,102100.03
2022-08-29T08:39:20.727Z,102098.06
2022-08-29T08:41:51.122Z,102103.13
2022-08-29T08:44:28.578Z,102113.81
2022-08-29T08:46:58.827Z,102102.88
2022-08-29T08:49:39.930Z,102107.66
2022-08-29T08:52:10.721Z,102102.56
2022-08-29T08:54:44.922Z,102104.84
2022-08-29T08:57:12.977Z,102098.88
2022-08-29T08:59:44.279Z,102094.09
2022-08-29T09:02:35.450Z,102095.78
2022-08-29T09:05:20.351Z,102103.38
2022-08-29T09:07:46.929Z,102091.59
2022-08-29T09:10:32.456Z,102096.59
2022-08-29T09:12:59.159Z,102101.97
2022-08-29T09:15:40.018Z,102105.94
2022-08-29T09:18:13.579Z,102101.13
2022-08-29T09:20:41.324Z,102095.75
2022-08-29T09:23:14.659Z,102095.19
2022-08-29T09:25:41.480Z,102083.88
2022-08-29T09:28:09.091Z,102089.81
2022-08-29T09:30:37.105Z,102085.31
2022-08-29T09:33:05.414Z,102088.66
2022-08-29T09:35:37.536Z,102087.53
2022-08-29T09:38:06.590Z,102093.47
2022-08-29T09:41:09.960Z,102095.13
2022-08-29T09:43:39.590Z,102094.00
2022-08-29T09:46:12.619Z,102089.22
2022-08-29T09:48:40.961Z,102091.19
2022-08-29T09:51:13.728Z,102091.44
2022-08-29T09:56:08.309Z,102094.19
2022-08-29T09:58:40.436Z,102080.09
2022-08-29T10:01:14.149Z,102082.09
2022-08-29T10:03:42.648Z,102105.78
2022-08-29T10:06:30.248Z,102090.84
2022-08-29T10:08:58.787Z,102082.41
2022-08-29T10:11:28.571Z,102083.53
2022-08-29T10:14:03.688Z,102092.00
2022-08-29T10:16:37.809Z,102085.78
2022-08-29T10:19:07.019Z,102082.41
2022-08-29T10:21:39.725Z,102086.88
2022-08-29T10:24:12.739Z,102083.78
2022-08-29T10:27:00.684Z,102088.81
2022-08-29T10:29:33.219Z,102088.00
2022-08-29T10:32:14.332Z,102092.19
2022-08-29T10:34:54.959Z,102083.13
2022-08-29T10:37:40.152Z,102080.06
2022-08-29T10:40:17.497Z,102075.88
2022-08-29T10:42:44.908Z,102079.22
2022-08-29T10:45:13.450Z,102076.63
2022-08-29T10:47:45.247Z,102073.81
2022-08-29T10:50:43.605Z,102073.81
2022-08-29T10:53:15.523Z,102069.63
2022-08-29T10:55:51.378Z,102068.78
2022-08-29T10:58:26.554Z,102059.50
2022-08-29T11:01:09.850Z,102062.31
2022-08-29T11:03:40.458Z,102058.66
2022-08-29T11:09:33.733Z,102060.22
2022-08-29T11:12:05.693Z,102061.38
2022-08-29T11:14:54.537Z,102052.66
2022-08-29T11:17:23.451Z,102057.75
2022-08-29T11:19:52.948Z,102055.25
2022-08-29T11:22:25.302Z,102059.09
2022-08-29T11:24:57.896Z,102054.59
2022-08-29T11:27:32.409Z,102057.13
2022-08-29T11:30:10.457Z,102061.38
2022-08-29T11:32:51.238Z,102051.78
2022-08-29T11:35:22.175Z,102042.47
2022-08-29T11:37:49.068Z,102044.44
2022-08-29T11:43:30.695Z,102036.53
2022-08-29T11:45:59.648Z,102030.75
2022-08-29T11:48:31.534Z,102034.75
2022-08-29T11:51:22.070Z,102034.19
2022-08-29T11:53:48.840Z,102024.66
2022-08-29T11:56:16.038Z,102031.38
2022-08-29T11:58:46.071Z,102031.13
2022-08-29T12:01:33.550Z,102031.44
2022-08-29T12:04:00.888Z,102025.78
2022-08-29T12:06:35.326Z,102017.03
2022-08-29T12:09:07.227Z,102015.91
2022-08-29T12:11:53.452Z,102012.47
2022-08-29T12:14:33.192Z,102017.28
2022-08-29T12:17:05.335Z,102013.63
2022-08-29T12:19:52.779Z,102016.44
2022-08-29T12:22:37.889Z,102028.25
2022-08-29T12:25:36.804Z,102027.41
2022-08-29T12:28:03.506Z,102027.72
2022-08-29T12:30:40.945Z,102031.38
2022-08-29T12:33:14.633Z,102018.97
2022-08-29T12:35:56.739Z,102020.31
2022-08-29T12:38:44.925Z,102027.13
2022-08-29T12:41:29.983Z,102023.16
2022-08-29T12:44:00.094Z,102017.84
2022-08-29T12:46:35.695Z,102017.00
2022-08-29T12:49:21.202Z,102019.81
2022-08-29T12:51:49.537Z,102024.53
2022-08-29T12:54:28.106Z,102020.31
2022-08-29T12:56:57.309Z,102023.16
2022-08-29T12:59:24.095Z,102023.47
2022-08-29T13:01:57.087Z,102026.81
2022-08-29T13:04:25.691Z,102025.13
2022-08-29T13:06:59.265Z,102024.53
2022-08-29T13:09:28.989Z,102005.09
2022-08-29T13:12:14.236Z,102012.72
2022-08-29T13:14:53.071Z,102005.38
2022-08-29T13:17:21.026Z,102007.41
2022-08-29T13:20:06.710Z,102002.56
2022-08-29T13:22:33.447Z,101997.78
2022-08-29T13:25:04.964Z,101999.47
2022-08-29T13:27:31.960Z,102003.13
2022-08-29T13:30:01.867Z,102011.28
2022-08-29T13:32:28.568Z,102011.56
2022-08-29T13:35:01.129Z,102011.56
2022-08-29T13:37:29.964Z,102012.03
2022-08-29T13:39:56.708Z,102005.66
2022-08-29T13:42:26.519Z,102005.31
2022-08-29T13:44:58.672Z,102004.81
2022-08-29T13:47:29.624Z,102007.63
2022-08-29T13:50:09.061Z,102001.66
2022-08-29T13:52:35.833Z,102000.00
2022-08-29T13:55:02.902Z,101991.22
2022-08-29T13:57:30.713Z,101996.03
2022-08-29T13:59:58.219Z,101987.56
2022-08-29T14:02:25.347Z,101984.50
2022-08-29T14:04:52.339Z,101986.50
2022-08-29T14:07:21.310Z,101986.75
2022-08-29T14:09:48.327Z,101987.34
2022-08-29T14:12:15.534Z,101982.84
2022-08-29T14:14:42.757Z,101986.75
2022-08-29T14:17:10.060Z,101972.09
2022-08-29T14:19:40.903Z,101963.53
2022-08-29T14:22:08.461Z,101972.34
2022-08-29T14:24:35.262Z,101972.66
2022-08-29T14:27:02.778Z,101983.94
2022-08-29T14:29:31.053Z,101974.09
2022-08-29T14:31:58.392Z,101972.34
2022-08-29T14:34:25.347Z,101974.84
2022-08-29T14:36:57.418Z,101970.66
2022-08-29T14:39:26.388Z,101962.81
2022-08-29T14:41:53.692Z,101967.59
2022-08-29T14:44:22.078Z,101961.38
2022-08-29T14:46:48.993Z,101969.00
2022-08-29T14:49:16.096Z,101967.03
2022-08-29T14:51:44.539Z,101969.00
2022-08-29T14:54:11.642Z,101969.00
2022-08-29T14:56:48.094Z,101966.75
2022-08-29T14:59:16.231Z,101969.56
2022-08-29T15:01:43.160Z,101976.91
2022-08-29T15:04:10.060Z,101976.91
2022-08-29T15:06:37.984Z,101972.94
2022-08-29T15:09:04.954Z,101977.75
2022-08-29T15:11:31.643Z,101984.50
2022-08-29T15:14:03.545Z,101981.94
2022-08-29T15:16:32.006Z,101975.16
2022-08-29T15:19:40.617Z,101974.63
2022-08-29T15:21:45.315Z,101968.66
2022-08-29T15:24:11.955Z,101970.66
2022-08-29T15:26:38.731Z,101965.34
2022-08-29T15:29:05.454Z,101956.56
2022-08-29T15:31:32.178Z,101955.63
2022-08-29T15:33:58.858Z,101958.22
2022-08-29T15:36:25.503Z,101955.13
2022-08-29T15:38:52.173Z,101960.22
2022-08-29T15:41:18.846Z,101959.06
2022-08-29T15:43:45.512Z,101952.59
2022-08-29T15:46:12.449Z,101957.38
2022-08-29T15:48:39.549Z,101953.72
2022-08-29T15:51:10.177Z,101944.47
2022-08-29T15:53:36.842Z,101937.97
2022-08-29T15:56:03.520Z,101939.88
2022-08-29T15:58:30.543Z,101940.41
2022-08-29T16:01:07.195Z,101949.47
2022-08-29T16:03:33.944Z,101951.75
2022-08-29T16:06:00.582Z,101954.56
2022-08-29T16:08:29.746Z,101949.78
2022-08-29T16:11:03.219Z,101951.22
2022-08-29T16:13:30.069Z,101950.09
2022-08-29T16:15:56.812Z,101946.44
2022-08-29T16:18:23.527Z,101952.91
2022-08-29T16:20:50.750Z,101951.16
2022-08-29T16:23:23.406Z,101954.50
2022-08-29T16:25:50.124Z,101952.81
2022-08-29T16:28:17.028Z,101961.59
2022-08-29T16:30:44.476Z,101966.69
2022-08-29T16:33:13.340Z,101953.72
2022-08-29T16:35:39.959Z,101950.31
2022-08-29T16:38:06.705Z,101949.47
2022-08-29T16:40:33.617Z,101953.72
2022-08-29T16:43:00.836Z,101954.28
2022-08-29T16:45:27.506Z,101952.91
2022-08-29T16:47:57.402Z,101954.06
2022-08-29T16:50:25.024Z,101956.88
2022-08-29T16:52:51.819Z,101957.72
2022-08-29T16:55:18.521Z,101953.16
2022-08-29T16:58:05.138Z,101944.06
2022-08-29T17:00:32.322Z,101948.09
2022-08-29T17:02:59.157Z,101944.47
2022-08-29T17:05:25.986Z,101946.13
2022-08-29T17:07:52.524Z,101934.31
2022-08-29T17:10:19.199Z,101927.00
2022-08-29T17:12:45.965Z,101935.16
2022-08-29T17:15:12.586Z,101928.13
2022-08-29T17:17:39.210Z,101931.78
2022-08-29T17:20:06.079Z,101935.38
2022-08-29T17:22:33.503Z,101928.34
2022-08-29T17:25:00.388Z,101939.63
2022-08-29T17:27:30.116Z,101930.94
2022-08-29T17:29:57.011Z,101941.53
2022-08-29T17:32:23.715Z,101931.16
2022-08-29T17:34:50.540Z,101945.59
2022-08-29T17:37:17.489Z,101945.88
2022-08-29T17:39:44.204Z,101940.78
2022-08-29T17:42:11.582Z,101946.44
2022-08-29T17:44:38.378Z,101943.34
2022-08-29T17:47:05.177Z,101946.19
2022-08-29T17:49:32.556Z,101938.88
2022-08-29T17:51:59.238Z,101945.59
2022-08-29T17:54:26.843Z,101940.88
2022-08-29T17:56:55.103Z,101942.78
2022-08-29T17:59:22.299Z,101936.59
2022-08-29T18:01:48.972Z,101952.06
2022-08-29T18:04:16.037Z,101946.44
2022-08-29T18:06:42.810Z,101943.34
2022-08-29T18:09:09.616Z,101944.53
2022-08-29T18:11:41.166Z,101948.19
2022-08-29T18:14:08.728Z,101952.13
2022-08-29T18:16:35.837Z,101955.25
2022-08-29T18:19:03.385Z,101955.47
2022-08-29T18:21:30.352Z,101959.75
2022-08-29T18:23:57.878Z,101960.88
2022-08-29T18:26:26.472Z,101964.84
2022-08-29T18:28:53.826Z,101965.16
2022-08-29T18:31:21.247Z,101971.03
2022-08-29T18:34:03.882Z,101958.06
2022-08-29T18:36:31.749Z,101967.06
2022-08-29T18:38:59.095Z,101962.88
2022-08-29T18:41:27.017Z,101967.66
2022-08-29T18:43:54.202Z,101971.03
2022-08-29T18:46:21.523Z,101969.34
2022-08-29T18:48:48.425Z,101966.53
2022-08-29T18:51:20.682Z,101969.97
2022-08-29T18:53:49.978Z,101968.28
2022-08-29T18:56:17.033Z,101975.59
2022-08-29T18:58:44.825Z,101979.56
2022-08-29T19:01:14.997Z,101989.16
2022-08-29T19:03:42.096Z,101990.00
2022-08-29T19:06:08.917Z,101997.59
2022-08-29T19:08:36.680Z,101996.75
2022-08-29T19:11:11.473Z,101996.75
2022-08-29T19:13:39.025Z,101996.22
2022-08-29T19:16:07.430Z,101997.59
2022-08-29T19:18:34.609Z,102001.56
2022-08-29T19:21:12.923Z,102004.69
2022-08-29T19:23:41.487Z,102014.28
2022-08-29T19:26:10.965Z,102017.09
2022-08-29T19:28:37.974Z,102011.19
2022-08-29T19:31:12.395Z,102014.84
2022-08-29T19:33:42.142Z,102021.59
2022-08-29T19:36:09.362Z,102032.03
2022-08-29T19:38:37.097Z,102030.91
2022-08-29T19:41:10.066Z,102032.31
2022-08-29T19:43:39.204Z,102037.97
2022-08-29T19:46:14.535Z,102033.72
2022-08-29T19:48:43.619Z,102040.50
2022-08-29T19:51:13.594Z,102036.28
2022-08-29T19:53:41.936Z,102042.75
2022-08-29T19:56:09.384Z,102043.31
2022-08-29T19:58:37.726Z,102042.25
2022-08-29T20:01:11.616Z,102032.03
2022-08-29T20:03:40.087Z,102036.28
2022-08-29T20:06:07.665Z,102029.50
2022-08-29T20:08:40.098Z,102032.66
2022-08-29T20:11:15.832Z,102023.34
2022-08-29T20:13:47.537Z,102024.19
2022-08-29T20:16:17.919Z,102029.22
2022-08-29T20:18:45.287Z,102027.78
2022-08-29T20:21:12.883Z,102018.22
2022-08-29T20:23:43.572Z,102024.19
2022-08-29T20:26:17.174Z,102021.94
2022-08-29T20:28:43.873Z,102020.81
2022-08-29T20:31:13.417Z,102020.53
2022-08-29T20:33:41.510Z,102019.38
2022-08-29T20:36:27.111Z,102016.25
2022-08-29T20:38:53.770Z,102026.47
2022-08-29T20:41:21.225Z,102033.53
2022-08-29T20:43:48.211Z,102026.75
2022-08-29T20:46:14.917Z,102031.00
2022-08-29T20:48:41.593Z,102022.28
2022-08-29T20:51:12.821Z,102035.53
2022-08-29T20:53:40.797Z,102025.63
2022-08-29T20:56:07.425Z,102032.69
2022-08-29T20:58:34.812Z,102042.28
2022-08-29T21:01:10.026Z,102040.59
2022-08-29T21:03:55.276Z,102043.66
2022-08-29T21:06:21.968Z,102042.28
2022-08-29T21:08:49.003Z,102038.88
2022-08-29T21:11:16.469Z,102049.00
2022-08-29T21:13:43.647Z,102048.44
2022-08-29T21:16:11.163Z,102042.28
2022-08-29T21:18:37.891Z,102046.25
2022-08-29T21:21:15.288Z,102043.41
2022-08-29T21:23:42.157Z,102039.75
2022-08-29T21:26:09.982Z,102048.22
2022-08-29T21:28:37.949Z,102048.53
2022-08-29T21:31:12.590Z,102055.31
2022-08-29T21:33:44.009Z,102057.50
2022-08-29T21:36:25.961Z,102054.69
2022-08-29T21:38:54.515Z,102054.97
2022-08-29T21:41:21.635Z,102054.16
2022-08-29T21:43:48.364Z,102055.31
2022-08-29T21:46:15.873Z,102063.75
2022-08-29T21:48:42.726Z,102059.25
2022-08-29T21:51:12.495Z,102066.88
2022-08-29T21:53:41.535Z,102073.34
2022-08-29T21:56:08.499Z,102077.28
2022-08-29T21:58:35.154Z,102079.59
2022-08-29T22:01:11.544Z,102086.59
2022-08-29T22:03:38.732Z,102076.44
2022-08-29T22:06:06.140Z,102080.06
2022-08-29T22:08:32.941Z,102080.06
2022-08-29T22:11:22.954Z,102082.34
2022-08-29T22:13:51.208Z,102082.63
2022-08-29T22:16:29.797Z,102088.88
2022-08-29T22:18:57.839Z,102080.09
2022-08-29T22:21:24.960Z,102089.97
2022-08-29T22:23:51.962Z,102083.97
2022-08-29T22:26:18.588Z,102081.50
2022-08-29T22:28:45.496Z,102077.84
2022-08-29T22:31:14.602Z,102074.47
2022-08-29T22:33:41.443Z,102069.97
2022-08-29T22:36:09.910Z,102076.44
2022-08-29T22:38:36.628Z,102061.50
2022-08-29T22:41:15.678Z,102071.13
2022-08-29T22:43:43.781Z,102067.22
2022-08-29T22:46:14.748Z,102077.59
2022-08-29T22:48:41.945Z,102080.72
2022-08-29T22:51:19.040Z,102077.91
2022-08-29T22:54:08.739Z,102076.22
2022-08-29T22:56:38.494Z,102074.00
2022-08-29T22:59:06.838Z,102068.66
2022-08-29T23:01:35.229Z,102071.47
2022-08-29T23:04:03.715Z,102078.50
2022-08-29T23:08:57.444Z,102070.34
2022-08-29T23:11:28.353Z,102078.22
2022-08-29T23:13:56.644Z,102068.94
2022-08-29T23:16:24.224Z,102074.88
2022-08-29T23:18:51.492Z,102075.16
2022-08-29T23:21:18.859Z,102083.34
2022-08-29T23:23:45.890Z,102078.00
2022-08-29T23:26:12.965Z,102073.81
2022-08-29T23:28:39.858Z,102076.31
2022-08-29T23:31:11.399Z,102069.81
2022-08-29T23:33:38.298Z,102078.59
2022-08-29T23:36:05.772Z,102078.59
2022-08-29T23:38:32.706Z,102074.38
2022-08-29T23:41:15.018Z,102074.38
2022-08-29T23:43:42.450Z,102078.34
2022-08-29T23:46:09.646Z,102079.44
2022-08-29T23:48:36.722Z,102088.19
2022-08-29T23:51:13.120Z,102081.16
2022-08-29T23:53:40.074Z,102083.97
2022-08-29T23:56:10.975Z,102083.41
2022-08-29T23:58:37.820Z,102080.84
